Time;durP1;ratioP1;P1;durP2;ratioP2;P2;SDS_P1;SDS_P2;PMS_P1;PMS_P2;Temp;Humidity;BMP_temperature;BMP_pressure;BME280_temperature;BME280_humidity;BME280_pressure;Samples;Min_cycle;Max_cycle;Signal;HPM_P1;HPM_P2
2024/01/03 00:00:21;;;;;;;17.60;2.55;;;;;;;-146.27;97.96;32779.50;5058390;28;20035;-73
2024/01/03 00:02:47;;;;;;;30.02;3.30;;;;;;;-146.27;98.22;32755.69;5063966;28;20103;-73
2024/01/03 00:05:13;;;;;;;21.60;2.65;;;;;;;-146.27;98.23;32799.34;5064303;28;20075;-73
2024/01/03 00:07:40;;;;;;;25.05;3.30;;;;;;;-146.27;97.78;32759.66;5058807;28;20453;-73
2024/01/03 00:10:37;;;;;;;22.65;2.40;;;;;;;-146.27;98.62;32850.94;5057755;28;20032;-73
2024/01/03 00:13:04;;;;;;;21.58;2.92;;;;;;;-146.27;97.56;32759.66;5070242;28;20088;-73
2024/01/03 00:15:36;;;;;;;11.38;2.03;;;;;;;-146.27;97.00;32718.00;5059719;28;20029;-72
2024/01/03 00:18:04;;;;;;;24.40;3.55;;;;;;;-146.27;96.57;32702.13;5061503;28;20328;-73
2024/01/03 00:20:32;;;;;;;30.08;3.72;;;;;;;-146.27;96.20;32696.19;5066287;28;20443;-72
2024/01/03 00:22:59;;;;;;;32.25;3.78;;;;;;;-146.27;95.86;32727.94;5066042;28;20375;-73
2024/01/03 00:25:29;;;;;;;18.08;2.90;;;;;;;-146.27;94.09;32656.50;5066370;28;20077;-73
2024/01/03 00:27:56;;;;;;;22.73;2.85;;;;;;;-146.27;92.65;32747.78;5064807;28;20449;-73
2024/01/03 00:30:22;;;;;;;24.90;2.58;;;;;;;-146.27;90.91;32727.94;5066872;28;20155;-73
2024/01/03 00:32:48;;;;;;;23.77;3.92;;;;;;;-146.27;89.45;32598.97;5062647;28;20477;-72
2024/01/03 00:35:14;;;;;;;26.90;2.53;;;;;;;-146.27;88.28;32628.75;5060454;28;20536;-73
2024/01/03 00:37:40;;;;;;;18.15;2.88;;;;;;;-146.27;87.81;32531.53;5066846;28;20023;-72
2024/01/03 00:40:49;;;;;;;27.48;3.50;;;;;;;-146.27;87.08;32521.63;5054066;28;20496;-73
2024/01/03 00:43:15;;;;;;;15.30;2.60;;;;;;;-146.27;86.51;32541.47;5059026;28;20032;-72
2024/01/03 00:45:40;;;;;;;19.55;2.92;;;;;;;-146.27;86.01;32589.06;5050177;28;20074;-75
2024/01/03 00:48:06;;;;;;;22.20;2.88;;;;;;;-146.27;85.33;32479.97;5066349;28;20089;-71
2024/01/03 00:50:31;;;;;;;29.40;3.33;;;;;;;-146.27;85.17;32398.63;5062441;28;20108;-72
2024/01/03 00:52:57;;;;;;;27.90;3.45;;;;;;;-146.27;85.21;32442.28;5069327;28;20059;-72
2024/01/03 00:55:22;;;;;;;21.35;2.90;;;;;;;-146.27;85.59;32430.38;5057084;28;20217;-72
2024/01/03 00:57:47;;;;;;;20.27;3.42;;;;;;;-146.27;85.07;32485.91;5052498;28;20033;-73
2024/01/03 01:00:13;;;;;;;19.48;2.80;;;;;;;-146.27;85.18;32462.09;5070745;28;20420;-71
2024/01/03 01:02:40;;;;;;;24.90;3.63;;;;;;;-146.27;84.00;32398.63;5071143;28;20086;-72
2024/01/03 01:05:06;;;;;;;28.55;2.95;;;;;;;-146.27;84.23;32458.13;5065496;28;20021;-72
2024/01/03 01:07:31;;;;;;;17.05;2.78;;;;;;;-146.27;83.92;32400.63;5060854;28;20028;-72
2024/01/03 01:09:56;;;;;;;17.45;3.63;;;;;;;-146.27;84.04;32372.84;5065122;28;20032;-72
2024/01/03 01:12:22;;;;;;;17.85;3.15;;;;;;;-146.27;84.10;32458.13;5063212;28;20025;-72
2024/01/03 01:14:48;;;;;;;19.73;4.45;;;;;;;-146.27;84.45;32303.41;5068171;28;20032;-72
2024/01/03 01:17:13;;;;;;;19.88;3.42;;;;;;;-146.27;83.54;32331.19;5070490;28;20040;-71
2024/01/03 01:19:38;;;;;;;27.17;2.90;;;;;;;-146.27;84.35;32339.13;5065980;28;20033;-72
2024/01/03 01:22:04;;;;;;;25.23;2.95;;;;;;;-146.27;83.69;32374.81;5058458;28;20035;-71
2024/01/03 01:24:29;;;;;;;19.48;3.13;;;;;;;-146.27;83.32;32253.81;5072510;28;20308;-71
2024/01/03 01:26:54;;;;;;;19.30;4.45;;;;;;;-146.27;83.04;32398.63;5070614;28;20369;-71
2024/01/03 01:29:20;;;;;;;22.35;3.50;;;;;;;-146.27;82.90;32327.22;5069140;28;20349;-70
2024/01/03 01:31:47;;;;;;;20.17;3.17;;;;;;;-146.27;82.19;32374.81;5057066;28;20501;-72
2024/01/03 01:34:12;;;;;;;23.58;3.35;;;;;;;-146.27;82.00;32287.53;5071256;28;20033;-72
2024/01/03 01:36:38;;;;;;;18.02;3.47;;;;;;;-146.27;81.56;32388.72;5067509;28;20111;-70
2024/01/03 01:39:03;;;;;;;22.23;3.30;;;;;;;-146.27;81.35;32396.66;5065733;28;20036;-72
2024/01/03 01:41:29;;;;;;;32.17;4.10;;;;;;;-146.27;80.94;32259.78;5066132;28;20448;-72
2024/01/03 01:43:54;;;;;;;23.60;2.83;;;;;;;-146.27;81.10;32351.03;5071374;28;20051;-72
2024/01/03 01:46:20;;;;;;;29.35;3.92;;;;;;;-146.27;81.02;32291.50;5064218;28;20040;-72
2024/01/03 01:48:46;;;;;;;15.63;2.00;;;;;;;-146.27;80.79;32390.69;5069438;28;20600;-72
2024/01/03 01:51:13;;;;;;;15.98;2.75;;;;;;;-146.27;80.64;32384.75;5065981;28;20490;-71
2024/01/03 01:53:39;;;;;;;22.45;3.42;;;;;;;-146.27;80.72;32307.38;5065240;28;20028;-71
2024/01/03 01:56:05;;;;;;;23.70;3.75;;;;;;;-146.27;80.55;32378.78;5071778;28;20028;-71
2024/01/03 01:58:31;;;;;;;21.50;2.95;;;;;;;-146.27;80.51;32305.41;5075685;28;20068;-74
2024/01/03 02:00:57;;;;;;;20.77;3.00;;;;;;;-146.27;79.66;32257.78;5059604;28;20044;-71
2024/01/03 02:03:23;;;;;;;21.63;2.97;;;;;;;-146.27;79.93;32351.03;5060770;28;20059;-71
2024/01/03 02:05:49;;;;;;;21.27;3.03;;;;;;;-146.27;80.24;32402.59;5060028;28;20070;-71
2024/01/03 02:08:16;;;;;;;15.55;2.65;;;;;;;-146.27;80.26;32299.44;5071327;28;20028;-72
2024/01/03 02:10:41;;;;;;;20.15;2.60;;;;;;;-146.27;80.66;32404.59;5058544;28;20023;-72
2024/01/03 02:13:06;;;;;;;22.98;3.15;;;;;;;-146.27;80.01;32333.16;5066206;28;20384;-72
2024/01/03 02:15:32;;;;;;;20.90;2.67;;;;;;;-146.27;80.15;32382.75;5066722;28;20031;-72
2024/01/03 02:17:59;;;;;;;15.85;2.78;;;;;;;-146.27;79.93;32311.34;5071721;28;20032;-72
2024/01/03 02:20:30;;;;;;;18.90;3.00;;;;;;;-146.27;80.38;32331.19;5069272;28;20043;-72
2024/01/03 02:22:56;;;;;;;20.23;3.35;;;;;;;-146.27;80.78;32325.25;5069755;28;20383;-71
2024/01/03 02:25:21;;;;;;;21.83;2.88;;;;;;;-146.27;79.59;32164.56;5070198;28;20028;-71
2024/01/03 02:27:48;;;;;;;21.73;3.20;;;;;;;-146.27;80.55;32380.78;5071088;28;20043;-73
2024/01/03 02:30:15;;;;;;;28.73;3.25;;;;;;;-146.27;81.16;32436.31;5063649;28;20036;-72
2024/01/03 02:32:40;;;;;;;16.48;2.45;;;;;;;-146.27;80.24;32267.72;5067535;28;20036;-72
2024/01/03 02:35:09;;;;;;;20.95;3.15;;;;;;;-146.27;80.16;32285.56;5060223;28;20036;-73
2024/01/03 02:37:35;;;;;;;20.60;2.70;;;;;;;-146.27;80.19;32321.28;5059489;28;20024;-71
2024/01/03 02:40:00;;;;;;;16.88;2.58;;;;;;;-146.27;79.42;32251.84;5067459;28;20044;-71
2024/01/03 02:42:25;;;;;;;21.95;3.47;;;;;;;-146.27;80.52;32355.00;5078961;28;20506;-70
2024/01/03 02:44:51;;;;;;;27.45;3.10;;;;;;;-146.27;79.46;32239.94;5062852;28;20055;-71
2024/01/03 02:47:16;;;;;;;13.63;2.35;;;;;;;-146.27;79.80;32243.91;5063701;28;20113;-72
2024/01/03 02:49:41;;;;;;;24.50;3.65;;;;;;;-146.27;79.23;32192.34;5067434;28;20039;-73
2024/01/03 02:52:07;;;;;;;29.95;3.17;;;;;;;-146.27;80.05;32356.97;5066823;28;20511;-71
2024/01/03 02:54:32;;;;;;;17.42;3.05;;;;;;;-146.27;81.09;32368.88;5062701;28;20063;-72
2024/01/03 02:56:58;;;;;;;14.30;2.47;;;;;;;-146.27;80.81;32327.22;5068779;28;20024;-71
2024/01/03 02:59:25;;;;;;;17.10;2.83;;;;;;;-146.27;80.94;32315.31;5063746;28;20109;-72
2024/01/03 03:01:51;;;;;;;16.60;2.53;;;;;;;-146.27;80.51;32307.38;5061304;28;20115;-73
2024/01/03 03:04:16;;;;;;;20.98;3.15;;;;;;;-146.27;79.97;32234.00;5063747;28;20381;-70
2024/01/03 03:06:41;;;;;;;22.48;2.33;;;;;;;-146.27;79.89;32198.28;5068679;28;20021;-71
2024/01/03 03:09:07;;;;;;;23.58;2.92;;;;;;;-146.27;79.87;32178.44;5062258;28;20045;-72
2024/01/03 03:11:32;;;;;;;28.00;3.10;;;;;;;-146.27;80.57;32307.38;5065306;28;20024;-70
2024/01/03 03:13:58;;;;;;;19.33;4.53;;;;;;;-146.27;80.66;32345.06;5063968;28;20435;-72
2024/01/03 03:16:23;;;;;;;24.42;3.20;;;;;;;-146.27;80.73;32335.16;5061555;28;20309;-71
2024/01/03 03:18:48;;;;;;;21.23;3.83;;;;;;;-146.27;80.70;32303.41;5065320;28;20362;-71
2024/01/03 03:21:14;;;;;;;22.73;3.15;;;;;;;-146.27;80.94;32323.25;5064893;28;20321;-72
2024/01/03 03:23:40;;;;;;;28.67;3.15;;;;;;;-146.27;80.89;32303.41;5069090;28;20013;-72
2024/01/03 03:26:06;;;;;;;16.98;2.95;;;;;;;-146.27;80.92;32291.50;5070996;28;20114;-71
2024/01/03 03:28:32;;;;;;;22.88;3.00;;;;;;;-146.27;81.32;32263.75;5058573;28;20030;-71
2024/01/03 03:30:57;;;;;;;16.10;2.63;;;;;;;-146.27;80.75;32243.91;5062759;28;20024;-71
2024/01/03 03:33:22;;;;;;;14.88;2.65;;;;;;;-146.27;81.92;32366.91;5065116;28;20029;-72
2024/01/03 03:35:48;;;;;;;25.80;4.38;;;;;;;-146.27;81.67;32255.81;5058269;28;20492;-75
2024/01/03 03:38:13;;;;;;;19.88;3.08;;;;;;;-146.27;80.79;32029.69;5059608;28;20495;-71
2024/01/03 03:40:38;;;;;;;32.80;4.50;;;;;;;-146.27;81.18;32176.47;5066281;28;20054;-70
2024/01/03 03:43:04;;;;;;;27.35;3.10;;;;;;;-146.27;83.35;32311.34;5067342;28;20577;-72
2024/01/03 03:45:31;;;;;;;35.58;4.60;;;;;;;-146.27;82.51;32220.09;5060642;28;20158;-71
2024/01/03 03:47:56;;;;;;;28.05;3.97;;;;;;;-146.27;83.25;32247.88;5067155;28;20024;-71
2024/01/03 03:50:22;;;;;;;27.27;3.83;;;;;;;-146.27;82.79;32243.91;5057216;28;20462;-72
2024/01/03 03:52:47;;;;;;;22.52;3.53;;;;;;;-146.27;83.24;32374.81;5067642;28;20430;-72
2024/01/03 03:55:13;;;;;;;39.78;5.03;;;;;;;-146.27;83.33;32372.84;5070311;28;20577;-72
2024/01/03 03:57:39;;;;;;;21.95;3.85;;;;;;;-146.27;82.68;32301.44;5066001;28;20111;-72
2024/01/03 04:00:05;;;;;;;31.73;3.72;;;;;;;-146.27;83.09;32321.28;5054042;28;20111;-72
2024/01/03 04:02:30;;;;;;;22.15;3.47;;;;;;;-146.27;83.10;32269.69;5065770;28;20081;-71
2024/01/03 04:04:56;;;;;;;38.05;4.35;;;;;;;-146.27;82.33;32255.81;5060580;28;20029;-71
2024/01/03 04:07:21;;;;;;;34.22;5.68;;;;;;;-146.27;83.15;32333.16;5058577;28;20060;-71
2024/01/03 04:09:47;;;;;;;29.17;5.05;;;;;;;-146.27;82.77;32239.94;5063932;28;20066;-71
2024/01/03 04:12:12;;;;;;;29.48;4.38;;;;;;;-146.27;83.15;32317.31;5054434;28;20115;-72
2024/01/03 04:14:37;;;;;;;32.97;4.72;;;;;;;-146.27;84.42;32293.50;5056932;28;20064;-70
2024/01/03 04:17:03;;;;;;;26.92;4.85;;;;;;;-146.27;83.96;32289.53;5066066;28;20068;-71
2024/01/03 04:19:30;;;;;;;30.40;4.68;;;;;;;-146.27;85.21;32406.56;5060886;28;20063;-72
2024/01/03 04:21:56;;;;;;;31.85;4.57;;;;;;;-146.27;84.32;32364.91;5056995;28;20032;-71
2024/01/03 04:24:21;;;;;;;30.35;4.07;;;;;;;-146.27;84.23;32315.31;5054430;28;20356;-71
2024/01/03 04:26:47;;;;;;;35.08;4.53;;;;;;;-146.27;83.95;32243.91;5070035;28;20020;-70
2024/01/03 04:29:12;;;;;;;25.02;3.70;;;;;;;-146.27;84.86;32311.34;5062102;28;20561;-70
2024/01/03 04:31:37;;;;;;;41.10;4.65;;;;;;;-146.27;84.98;32331.19;5061671;28;20432;-71
2024/01/03 04:34:03;;;;;;;28.00;4.45;;;;;;;-146.27;84.91;32319.28;5060892;28;20032;-71
2024/01/03 04:36:28;;;;;;;39.35;5.10;;;;;;;-146.27;84.60;32291.50;5066037;28;20381;-72
2024/01/03 04:38:54;;;;;;;29.33;4.15;;;;;;;-146.27;84.74;32263.75;5062696;28;20117;-72
2024/01/03 04:41:19;;;;;;;41.97;5.43;;;;;;;-146.27;84.80;32228.03;5057979;28;20043;-71
2024/01/03 04:43:44;;;;;;;44.17;7.45;;;;;;;-146.27;85.98;32315.31;5053586;28;20377;-70
2024/01/03 04:46:10;;;;;;;31.90;5.43;;;;;;;-146.27;85.83;32323.25;5062698;28;20029;-70
2024/01/03 04:48:35;;;;;;;39.63;4.93;;;;;;;-146.27;85.87;32329.19;5067116;28;20485;-71
2024/01/03 04:51:00;;;;;;;34.67;5.43;;;;;;;-146.27;85.39;32245.91;5065001;28;20020;-71
2024/01/03 04:53:26;;;;;;;31.15;5.93;;;;;;;-146.27;84.70;32283.59;5071517;28;20059;-70
2024/01/03 04:55:51;;;;;;;36.28;4.90;;;;;;;-146.27;85.29;32259.78;5058936;28;20017;-71
2024/01/03 04:58:17;;;;;;;35.88;5.10;;;;;;;-146.27;85.61;32285.56;5064411;28;20056;-73
2024/01/03 05:00:43;;;;;;;31.40;4.72;;;;;;;-146.27;85.29;32339.13;5053076;28;20045;-72
2024/01/03 05:03:08;;;;;;;40.60;4.78;;;;;;;-146.27;84.01;32168.53;5063935;28;20060;-71
2024/01/03 05:05:34;;;;;;;39.33;5.18;;;;;;;-146.27;84.70;32196.31;5056021;28;20127;-70
2024/01/03 05:07:59;;;;;;;31.55;4.88;;;;;;;-146.27;85.74;32277.63;5068034;28;20706;-70
2024/01/03 05:10:25;;;;;;;42.15;4.80;;;;;;;-146.27;84.83;32232.00;5065836;28;20503;-70
2024/01/03 05:12:50;;;;;;;42.72;5.45;;;;;;;-146.27;85.09;32140.75;5063580;28;20531;-70
2024/01/03 05:15:16;;;;;;;47.03;5.03;;;;;;;-146.27;84.78;32174.47;5055575;28;20112;-72
2024/01/03 05:17:41;;;;;;;30.35;3.58;;;;;;;-146.27;84.57;32180.44;5066483;28;20026;-70
2024/01/03 05:20:08;;;;;;;31.77;5.28;;;;;;;-146.27;85.90;32279.63;5060766;28;20036;-70
2024/01/03 05:22:34;;;;;;;23.23;4.13;;;;;;;-146.27;84.53;32198.28;5066985;28;20502;-71
2024/01/03 05:25:00;;;;;;;26.73;4.07;;;;;;;-146.27;84.29;32230.03;5064650;28;20024;-72
2024/01/03 05:27:26;;;;;;;23.40;3.15;;;;;;;-146.27;84.45;32132.84;5064407;28;20391;-73
2024/01/03 05:29:51;;;;;;;34.17;3.90;;;;;;;-146.27;83.84;32101.09;5060253;28;20096;-71
2024/01/03 05:32:17;;;;;;;37.08;4.60;;;;;;;-146.27;85.48;32251.84;5060861;28;20024;-70
2024/01/03 05:34:44;;;;;;;32.78;3.80;;;;;;;-146.27;86.21;32297.47;5069682;28;20557;-70
2024/01/03 05:37:10;;;;;;;37.08;4.50;;;;;;;-146.27;85.72;32309.38;5064689;28;20432;-71
2024/01/03 05:39:36;;;;;;;20.13;2.55;;;;;;;-146.27;85.69;32279.63;5058648;28;20119;-72
2024/01/03 05:42:01;;;;;;;28.17;3.95;;;;;;;-146.27;86.11;32263.75;5064840;28;20103;-72
2024/01/03 05:44:27;;;;;;;20.40;3.00;;;;;;;-146.27;85.04;32243.91;5056249;28;20025;-71
2024/01/03 05:46:52;;;;;;;23.20;3.25;;;;;;;-146.27;86.87;32327.22;5063717;28;20028;-73
2024/01/03 05:49:17;;;;;;;26.13;3.85;;;;;;;-146.27;86.86;32454.16;5065981;28;20082;-72
2024/01/03 05:51:43;;;;;;;25.63;3.38;;;;;;;-146.27;85.73;32287.53;5073484;28;20035;-70
2024/01/03 05:54:08;;;;;;;17.20;2.72;;;;;;;-146.27;85.29;32297.47;5071486;28;20048;-72
2024/01/03 05:56:33;;;;;;;23.40;3.28;;;;;;;-146.27;85.60;32319.28;5074195;28;20059;-71
2024/01/03 05:58:59;;;;;;;20.40;2.60;;;;;;;-146.27;85.78;32355.00;5060735;28;20049;-72
2024/01/03 06:01:24;;;;;;;12.25;2.25;;;;;;;-146.27;85.81;32374.81;5067013;28;20035;-71
2024/01/03 06:03:49;;;;;;;17.88;2.40;;;;;;;-146.27;84.92;32259.78;5065227;28;20025;-71
2024/01/03 06:06:16;;;;;;;14.77;3.03;;;;;;;-146.27;85.29;32319.28;5067961;28;20056;-71
2024/01/03 06:08:41;;;;;;;15.40;2.33;;;;;;;-146.27;84.15;32198.28;5064671;28;20359;-71
2024/01/03 06:11:09;;;;;;;14.93;2.67;;;;;;;-146.27;86.51;32337.13;5063972;28;20228;-70
2024/01/03 06:13:34;;;;;;;15.05;2.30;;;;;;;-146.27;86.48;32323.25;5071831;28;20033;-72
2024/01/03 06:15:59;;;;;;;15.65;2.33;;;;;;;-146.27;87.91;32374.81;5076147;28;20149;-71
2024/01/03 06:18:25;;;;;;;20.33;2.42;;;;;;;-146.27;88.49;32416.47;5070620;28;20031;-72
2024/01/03 06:20:50;;;;;;;23.02;2.30;;;;;;;-146.27;89.35;32422.44;5059874;28;20031;-71
2024/01/03 06:23:16;;;;;;;27.58;2.22;;;;;;;-146.27;89.93;32533.53;5073495;28;20024;-71
2024/01/03 06:25:41;;;;;;;15.20;2.10;;;;;;;-146.27;90.68;32533.53;5068439;28;20024;-71
2024/01/03 06:28:06;;;;;;;28.55;3.97;;;;;;;-146.27;89.70;32491.88;5075097;28;20031;-71
2024/01/03 06:30:32;;;;;;;21.20;3.17;;;;;;;-146.27;89.93;32505.75;5068016;28;20396;-71
2024/01/03 06:32:57;;;;;;;25.45;3.22;;;;;;;-146.27;90.97;32533.53;5070669;28;20113;-72
2024/01/03 06:35:22;;;;;;;16.85;2.83;;;;;;;-146.27;89.80;32438.31;5068180;28;20064;-71
2024/01/03 06:37:48;;;;;;;30.58;3.85;;;;;;;-146.27;90.56;32430.38;5065989;28;20376;-71
2024/01/03 06:40:14;;;;;;;21.90;3.55;;;;;;;-146.27;89.24;32398.63;5067798;28;20055;-71
2024/01/03 06:42:40;;;;;;;24.38;2.67;;;;;;;-146.27;90.26;32466.06;5068506;28;20147;-72
2024/01/03 06:45:06;;;;;;;22.92;3.47;;;;;;;-146.27;89.99;32477.97;5066892;28;20361;-72
2024/01/03 06:47:31;;;;;;;30.20;2.72;;;;;;;-146.27;89.47;32450.22;5068147;28;20040;-72
2024/01/03 06:49:56;;;;;;;18.77;3.13;;;;;;;-146.27;88.06;32353.00;5073232;28;20024;-71
2024/01/03 06:52:22;;;;;;;20.85;3.08;;;;;;;-146.27;88.06;32440.28;5051306;28;20149;-71
2024/01/03 06:54:47;;;;;;;24.38;3.22;;;;;;;-146.27;89.21;32511.69;5067801;28;20033;-71
2024/01/03 06:57:12;;;;;;;16.38;2.60;;;;;;;-146.27;90.70;32612.88;5066893;28;20031;-70
2024/01/03 06:59:38;;;;;;;21.90;3.10;;;;;;;-146.27;90.50;32577.16;5064841;28;20534;-71
2024/01/03 07:02:03;;;;;;;28.27;3.50;;;;;;;-146.27;90.05;32479.97;5065143;28;20541;-71
2024/01/03 07:04:29;;;;;;;25.65;1.85;;;;;;;-146.27;90.96;32571.22;5058206;28;20025;-71
2024/01/03 07:06:55;;;;;;;17.60;2.75;;;;;;;-146.27;90.97;32581.13;5052280;28;20031;-71
2024/01/03 07:09:20;;;;;;;17.65;2.10;;;;;;;-146.27;91.13;32583.13;5063097;28;20028;-71
2024/01/03 07:11:46;;;;;;;17.65;2.70;;;;;;;-146.27;90.37;32474.00;5077505;28;20077;-71
2024/01/03 07:14:13;;;;;;;19.27;2.88;;;;;;;-146.27;90.58;32521.63;5069210;28;20646;-71
2024/01/03 07:16:39;;;;;;;25.85;2.65;;;;;;;-146.27;91.20;32551.38;5068876;28;20036;-72
2024/01/03 07:19:04;;;;;;;22.30;3.08;;;;;;;-146.27;91.69;32664.44;5064995;28;20093;-72
2024/01/03 07:21:30;;;;;;;19.65;2.55;;;;;;;-146.27;90.75;32499.81;5072099;28;20435;-72
2024/01/03 07:23:55;;;;;;;19.05;2.60;;;;;;;-146.27;90.56;32509.72;5066731;28;20036;-73
2024/01/03 07:26:21;;;;;;;16.35;2.42;;;;;;;-146.27;91.50;32642.63;5071866;28;20099;-73
2024/01/03 07:28:46;;;;;;;23.77;2.85;;;;;;;-146.27;91.31;32638.66;5067377;28;20177;-73
2024/01/03 07:31:11;;;;;;;27.67;3.55;;;;;;;-146.27;91.35;32533.53;5068550;28;20028;-73
2024/01/03 07:33:39;;;;;;;20.23;2.92;;;;;;;-146.27;90.90;32561.28;5068044;28;20032;-72
2024/01/03 07:36:04;;;;;;;28.83;3.08;;;;;;;-146.27;90.41;32583.13;5065697;28;20414;-70
2024/01/03 07:38:29;;;;;;;23.38;2.40;;;;;;;-146.27;90.78;32543.44;5081019;28;20021;-71
2024/01/03 07:40:55;;;;;;;19.83;2.55;;;;;;;-146.27;90.47;32497.81;5061060;28;20116;-72
2024/01/03 07:43:20;;;;;;;27.05;2.40;;;;;;;-146.27;90.45;32472.03;5064039;28;20027;-72
2024/01/03 07:45:45;;;;;;;27.10;3.67;;;;;;;-146.27;89.24;32460.13;5063180;28;20020;-71
2024/01/03 07:48:11;;;;;;;20.30;2.58;;;;;;;-146.27;90.10;32493.84;5062399;28;20055;-72
2024/01/03 07:50:36;;;;;;;26.15;3.60;;;;;;;-146.27;89.34;32406.56;5060401;28;20028;-72
2024/01/03 07:53:02;;;;;;;16.65;3.53;;;;;;;-146.27;87.50;32291.50;5066891;28;20085;-72
2024/01/03 07:55:27;;;;;;;23.02;3.72;;;;;;;-146.27;88.56;32442.28;5067932;28;20562;-72
2024/01/03 07:57:53;;;;;;;22.33;2.75;;;;;;;-146.27;88.64;32434.34;5069853;28;20036;-71
2024/01/03 08:00:18;;;;;;;26.15;3.47;;;;;;;-146.27;88.89;32460.13;5057626;28;20032;-71
2024/01/03 08:02:44;;;;;;;26.02;2.97;;;;;;;-146.27;87.43;32200.28;5052198;28;20108;-71
2024/01/03 08:05:09;;;;;;;19.58;2.75;;;;;;;-146.27;87.81;32355.00;5064598;28;20024;-74
2024/01/03 08:07:35;;;;;;;14.32;2.28;;;;;;;-146.27;87.41;32297.47;5051200;28;20020;-71
2024/01/03 08:10:00;;;;;;;30.83;3.13;;;;;;;-146.27;86.93;32356.97;5069860;28;20103;-70
2024/01/03 08:12:26;;;;;;;21.75;2.55;;;;;;;-146.27;86.69;32275.66;5061862;28;20021;-71
2024/01/03 08:14:51;;;;;;;30.83;3.17;;;;;;;-146.27;86.17;32255.81;5067586;28;20130;-71
2024/01/03 08:17:16;;;;;;;28.95;3.50;;;;;;;-146.27;86.25;32283.59;5055627;28;20115;-71
2024/01/03 08:19:41;;;;;;;20.70;2.55;;;;;;;-146.27;86.66;32325.25;5069521;28;20170;-71
2024/01/03 08:22:08;;;;;;;17.75;3.35;;;;;;;-146.27;86.97;32364.91;5066215;28;20060;-70
2024/01/03 08:24:33;;;;;;;21.20;2.83;;;;;;;-146.27;87.13;32378.78;5065712;28;20417;-70
2024/01/03 08:26:59;;;;;;;19.30;2.70;;;;;;;-146.27;86.97;32402.59;5069174;28;20036;-73
2024/01/03 08:29:24;;;;;;;19.27;3.15;;;;;;;-146.27;85.81;32291.50;5068857;28;20052;-71
2024/01/03 08:31:55;;;;;;;21.20;3.22;;;;;;;-146.27;85.72;32299.44;5061943;28;20492;-71
2024/01/03 08:34:20;;;;;;;21.27;2.58;;;;;;;-146.27;85.24;32265.72;5058441;28;20035;-71
2024/01/03 08:36:45;;;;;;;15.60;2.70;;;;;;;-146.27;84.76;32251.84;5065539;28;20477;-71
2024/01/03 08:39:11;;;;;;;24.40;2.85;;;;;;;-146.27;84.51;32281.59;5067535;28;20052;-71
2024/01/03 08:41:37;;;;;;;16.73;3.13;;;;;;;-146.27;85.60;32382.75;5077656;28;20155;-71
2024/01/03 08:44:05;;;;;;;24.33;3.00;;;;;;;-146.27;85.29;32366.91;5065885;28;20027;-73
2024/01/03 08:46:31;;;;;;;14.18;2.30;;;;;;;-146.27;85.79;32386.72;5069163;28;20062;-71
2024/01/03 08:48:57;;;;;;;15.80;2.55;;;;;;;-146.27;84.47;32263.75;5067883;28;20047;-71
2024/01/03 08:51:23;;;;;;;13.65;1.67;;;;;;;-146.27;84.33;32287.53;5060280;28;20028;-72
2024/01/03 08:53:49;;;;;;;18.95;2.25;;;;;;;-146.27;85.26;32360.94;5064787;28;20033;-71
2024/01/03 08:56:16;;;;;;;14.20;2.10;;;;;;;-146.27;85.32;32345.06;5067862;28;20541;-72
2024/01/03 08:58:43;;;;;;;12.60;2.35;;;;;;;-146.27;85.42;32279.63;5073857;28;20156;-72
2024/01/03 09:01:14;;;;;;;21.42;3.08;;;;;;;-146.27;85.48;32249.84;5068156;28;20028;-71
2024/01/03 09:03:39;;;;;;;12.20;1.90;;;;;;;-146.27;85.21;32329.19;5072670;28;20408;-72
2024/01/03 09:06:06;;;;;;;22.92;3.25;;;;;;;-146.27;85.31;32299.44;5066217;28;20025;-71
2024/01/03 09:08:32;;;;;;;17.58;1.88;;;;;;;-146.27;84.81;32299.44;5060929;28;20111;-71
2024/01/03 09:10:57;;;;;;;15.25;3.13;;;;;;;-146.27;84.42;32305.41;5066475;28;20496;-70
2024/01/03 09:13:23;;;;;;;10.05;2.88;;;;;;;-146.27;85.34;32341.09;5071092;28;20031;-72
2024/01/03 09:15:48;;;;;;;21.23;2.45;;;;;;;-146.27;85.94;32358.97;5075217;28;20028;-71
2024/01/03 09:18:13;;;;;;;11.73;2.70;;;;;;;-146.27;86.29;32360.94;5070535;28;20551;-71
2024/01/03 09:20:39;;;;;;;12.45;2.15;;;;;;;-146.27;88.78;32481.94;5068628;28;20472;-72
2024/01/03 09:23:04;;;;;;;17.75;2.03;;;;;;;-146.27;90.23;32495.84;5064171;28;20055;-72
2024/01/03 09:25:30;;;;;;;11.35;2.40;;;;;;;-146.27;89.04;32406.56;5068797;28;20090;-72
2024/01/03 09:27:55;;;;;;;15.98;2.25;;;;;;;-146.27;91.02;32583.13;5067385;28;20070;-71
2024/01/03 09:30:21;;;;;;;17.85;2.38;;;;;;;-146.27;90.27;32452.19;5077016;28;20107;-71
2024/01/03 09:32:50;;;;;;;22.00;2.58;;;;;;;-146.27;90.92;32446.25;5071620;28;20071;-69
2024/01/03 09:35:15;;;;;;;16.65;2.28;;;;;;;-146.27;91.01;32448.22;5069384;28;20397;-71
2024/01/03 09:37:40;;;;;;;16.13;1.95;;;;;;;-146.27;91.58;32424.41;5067956;28;20027;-71
2024/01/03 09:40:06;;;;;;;17.63;2.95;;;;;;;-146.27;92.00;32511.69;5070670;28;20028;-71
2024/01/03 09:42:34;;;;;;;36.10;3.42;;;;;;;-146.27;91.01;32410.53;5072963;28;20030;-70
2024/01/03 09:44:59;;;;;;;22.58;2.28;;;;;;;-146.27;91.19;32454.16;5067285;28;20032;-70
2024/01/03 09:47:25;;;;;;;19.77;2.35;;;;;;;-146.27;91.21;32418.47;5066713;28;20028;-71
2024/01/03 09:49:50;;;;;;;24.48;2.85;;;;;;;-146.27;90.90;32503.75;5069201;28;20039;-71
2024/01/03 09:52:16;;;;;;;19.85;2.75;;;;;;;-146.27;89.77;32402.59;5070425;28;20036;-71
2024/01/03 09:54:42;;;;;;;18.40;2.50;;;;;;;-146.27;89.24;32370.84;5067303;28;20024;-71
2024/01/03 09:57:09;;;;;;;9.88;2.40;;;;;;;-146.27;88.60;32430.38;5069646;28;20020;-71
2024/01/03 09:59:35;;;;;;;19.48;2.03;;;;;;;-146.27;88.48;32329.19;5065415;28;20045;-71
2024/01/03 10:02:01;;;;;;;21.23;4.03;;;;;;;-146.27;88.81;32378.78;5064846;28;20392;-72
2024/01/03 10:04:26;;;;;;;19.27;2.20;;;;;;;-146.27;88.22;32277.63;5066782;28;20070;-72
2024/01/03 10:06:53;;;;;;;9.55;1.70;;;;;;;-146.27;87.98;32307.38;5073429;28;20099;-72
2024/01/03 10:09:20;;;;;;;20.63;2.28;;;;;;;-146.27;87.34;32204.25;5062197;28;20029;-71
2024/01/03 10:11:46;;;;;;;17.88;1.98;;;;;;;-146.27;87.42;32224.06;5067183;28;20107;-71
2024/01/03 10:14:22;;;;;;;24.02;2.55;;;;;;;-146.27;87.34;32206.22;5069078;28;20446;-72
2024/01/03 10:16:48;;;;;;;23.42;3.45;;;;;;;-146.27;87.20;32293.50;5068440;28;20241;-72
2024/01/03 10:19:18;;;;;;;9.88;2.20;;;;;;;-146.27;87.08;32255.81;5082447;28;20098;-71
2024/01/03 10:21:54;;;;;;;22.27;2.22;;;;;;;-146.27;86.72;32356.97;5068976;28;20029;-73
2024/01/03 10:24:22;;;;;;;16.77;2.13;;;;;;;-146.27;85.64;32176.47;5069125;28;20492;-74
2024/01/03 10:26:48;;;;;;;19.92;1.92;;;;;;;-146.27;84.92;32130.84;5068327;28;20020;-72
2024/01/03 10:29:16;;;;;;;22.25;2.28;;;;;;;-146.27;85.15;32176.47;5069598;28;20028;-73
2024/01/03 10:31:42;;;;;;;17.75;2.70;;;;;;;-146.27;84.53;32105.06;5071936;28;20024;-73
2024/01/03 10:34:16;;;;;;;26.83;2.67;;;;;;;-146.27;84.10;32190.34;5069173;28;20032;-73
2024/01/03 10:36:45;;;;;;;20.38;3.20;;;;;;;-146.27;84.89;32269.69;5058863;28;20040;-73
2024/01/03 10:39:14;;;;;;;21.45;3.10;;;;;;;-146.27;84.35;32279.63;5064836;28;20425;-73
2024/01/03 10:41:43;;;;;;;18.85;2.53;;;;;;;-146.27;84.03;32228.03;5069899;28;20377;-72
2024/01/03 10:44:10;;;;;;;12.57;2.05;;;;;;;-146.27;83.60;32269.69;5069799;28;20475;-73
2024/01/03 10:46:35;;;;;;;16.77;2.08;;;;;;;-146.27;83.05;32255.81;5070335;28;20025;-72
2024/01/03 10:49:02;;;;;;;25.88;2.78;;;;;;;-146.27;83.83;32333.16;5071256;28;20383;-75
2024/01/03 10:51:32;;;;;;;19.92;2.05;;;;;;;-146.27;83.88;32356.97;5068845;28;20028;-74
2024/01/03 10:53:58;;;;;;;16.83;2.33;;;;;;;-146.27;83.43;32271.69;5070245;28;20412;-74
2024/01/03 10:56:24;;;;;;;18.10;3.22;;;;;;;-146.27;83.02;32251.84;5069609;28;20435;-74
2024/01/03 10:58:52;;;;;;;19.25;3.42;;;;;;;-146.27;82.38;32208.22;5079691;28;20043;-72
2024/01/03 11:01:26;;;;;;;24.52;3.05;;;;;;;-146.27;82.74;32295.47;5069091;28;20468;-72
2024/01/03 11:03:51;;;;;;;16.35;2.70;;;;;;;-146.27;82.27;32216.13;5068301;28;20388;-71